createdAt,value
2023-02-20T00:00:33.247Z,1025.55
2023-02-20T00:01:33.223Z,1025.61
2023-02-20T00:02:33.256Z,1025.59
2023-02-20T00:03:33.248Z,1025.60
2023-02-20T00:04:33.197Z,1025.55
2023-02-20T00:05:33.214Z,1025.51
2023-02-20T00:06:33.169Z,1025.51
2023-02-20T00:07:33.148Z,1025.41
2023-02-20T00:08:33.149Z,1025.39
2023-02-20T00:09:33.133Z,1025.36
2023-02-20T00:10:33.131Z,1025.37
2023-02-20T00:11:33.123Z,1025.38
2023-02-20T00:12:33.083Z,1025.36
2023-02-20T00:13:33.082Z,1025.33
2023-02-20T00:14:33.068Z,1025.32
2023-02-20T00:15:33.074Z,1025.27
2023-02-20T00:16:33.055Z,1025.28
2023-02-20T00:17:33.011Z,1025.23
2023-02-20T00:18:33.012Z,1025.29
2023-02-20T00:19:33.003Z,1025.26
2023-02-20T00:20:32.991Z,1025.29
2023-02-20T00:21:32.968Z,1025.32
2023-02-20T00:22:32.974Z,1025.31
2023-02-20T00:23:32.946Z,1025.28
2023-02-20T00:24:43.108Z,1025.28
2023-02-20T00:25:32.910Z,1025.30
2023-02-20T00:26:32.935Z,1025.31
2023-02-20T00:27:32.879Z,1025.32
2023-02-20T00:28:32.924Z,1025.29
2023-02-20T00:29:34.503Z,1025.27
2023-02-20T00:30:32.920Z,1025.29
2023-02-20T00:31:32.839Z,1025.31
2023-02-20T00:32:32.860Z,1025.31
2023-02-20T00:33:42.903Z,1025.28
2023-02-20T00:34:32.841Z,1025.28
2023-02-20T00:35:32.820Z,1025.20
2023-02-20T00:36:32.822Z,1025.18
2023-02-20T00:37:32.825Z,1025.16
2023-02-20T00:38:32.789Z,1025.15
2023-02-20T00:39:32.783Z,1025.17
2023-02-20T00:40:32.762Z,1025.11
2023-02-20T00:41:32.801Z,1025.12
2023-02-20T00:42:32.787Z,1025.09
2023-02-20T00:43:32.699Z,1025.06
2023-02-20T00:44:32.714Z,1025.08
2023-02-20T00:45:32.718Z,1025.05
2023-02-20T00:46:32.706Z,1025.03
2023-02-20T00:47:32.669Z,1025.02
2023-02-20T00:48:32.712Z,1025.02
2023-02-20T00:49:32.628Z,1024.99
2023-02-20T00:50:32.650Z,1024.93
2023-02-20T00:51:32.623Z,1024.92
2023-02-20T00:52:32.591Z,1024.93
2023-02-20T00:53:32.609Z,1024.93
2023-02-20T00:54:32.596Z,1024.94
2023-02-20T00:55:32.572Z,1024.91
2023-02-20T00:56:32.542Z,1024.95
2023-02-20T00:57:32.534Z,1024.90
2023-02-20T00:58:32.533Z,1024.85
2023-02-20T00:59:32.508Z,1024.82
2023-02-20T01:00:32.517Z,1024.80
2023-02-20T01:01:32.494Z,1024.74
2023-02-20T01:02:32.542Z,1024.72
2023-02-20T01:03:32.455Z,1024.71
2023-02-20T01:04:32.466Z,1024.72
2023-02-20T01:05:32.460Z,1024.66
2023-02-20T01:06:32.427Z,1024.63
2023-02-20T01:07:32.394Z,1024.59
2023-02-20T01:08:32.386Z,1024.55
2023-02-20T01:09:32.400Z,1024.52
2023-02-20T01:10:32.390Z,1024.57
2023-02-20T01:11:32.361Z,1024.58
2023-02-20T01:12:32.424Z,1024.60
2023-02-20T01:13:32.353Z,1024.61
2023-02-20T01:14:32.315Z,1024.61
2023-02-20T01:15:32.351Z,1024.55
2023-02-20T01:16:32.430Z,1024.56
2023-02-20T01:17:32.279Z,1024.53
2023-02-20T01:18:32.254Z,1024.47
2023-02-20T01:19:32.257Z,1024.44
2023-02-20T01:20:32.240Z,1024.45
2023-02-20T01:21:32.270Z,1024.48
2023-02-20T01:22:32.228Z,1024.46
2023-02-20T01:23:32.203Z,1024.42
2023-02-20T01:24:32.173Z,1024.43
2023-02-20T01:25:32.182Z,1024.44
2023-02-20T01:26:32.162Z,1024.41
2023-02-20T01:27:32.188Z,1024.37
2023-02-20T01:28:32.138Z,1024.37
2023-02-20T01:29:32.122Z,1024.37
2023-02-20T01:30:32.174Z,1024.41
2023-02-20T01:31:32.287Z,1024.41
2023-02-20T01:32:32.198Z,1024.43
2023-02-20T01:33:32.121Z,1024.42
2023-02-20T01:34:32.093Z,1024.44
2023-02-20T01:35:32.107Z,1024.48
2023-02-20T01:36:32.073Z,1024.52
2023-02-20T01:37:32.060Z,1024.51
2023-02-20T01:38:32.084Z,1024.52
2023-02-20T01:39:31.999Z,1024.51
2023-02-20T01:40:31.969Z,1024.46
2023-02-20T01:41:31.959Z,1024.43
2023-02-20T01:42:32.047Z,1024.43
2023-02-20T01:43:31.975Z,1024.45
2023-02-20T01:44:31.924Z,1024.52
2023-02-20T01:45:31.906Z,1024.48
2023-02-20T01:46:31.947Z,1024.45
2023-02-20T01:47:31.899Z,1024.44
2023-02-20T01:48:31.926Z,1024.44
2023-02-20T01:49:31.892Z,1024.35
2023-02-20T01:50:31.877Z,1024.34
2023-02-20T01:51:31.869Z,1024.30
2023-02-20T01:52:31.849Z,1024.32
2023-02-20T01:53:31.851Z,1024.30
2023-02-20T01:54:31.813Z,1024.27
2023-02-20T01:55:31.809Z,1024.29
2023-02-20T01:56:31.779Z,1024.34
2023-02-20T01:57:31.784Z,1024.31
2023-02-20T01:58:31.744Z,1024.33
2023-02-20T01:59:31.775Z,1024.34
2023-02-20T02:00:31.752Z,1024.34
2023-02-20T02:01:31.769Z,1024.30
2023-02-20T02:02:31.834Z,1024.27
2023-02-20T02:03:31.706Z,1024.27
2023-02-20T02:04:31.729Z,1024.15
2023-02-20T02:05:31.787Z,1024.17
2023-02-20T02:06:31.668Z,1024.11
2023-02-20T02:07:31.654Z,1024.10
2023-02-20T02:08:31.623Z,1024.06
2023-02-20T02:09:31.665Z,1024.06
2023-02-20T02:10:31.651Z,1024.07
2023-02-20T02:11:31.597Z,1024.12
2023-02-20T02:12:31.627Z,1024.09
2023-02-20T02:13:31.567Z,1024.01
2023-02-20T02:14:31.551Z,1024.00
2023-02-20T02:15:31.545Z,1023.97
2023-02-20T02:16:31.603Z,1023.97
2023-02-20T02:17:31.524Z,1023.92
2023-02-20T02:18:31.493Z,1023.94
2023-02-20T02:19:31.536Z,1023.88
2023-02-20T02:20:31.461Z,1023.86
2023-02-20T02:21:31.473Z,1023.82
2023-02-20T02:22:31.525Z,1023.79
2023-02-20T02:23:31.432Z,1023.78
2023-02-20T02:24:31.444Z,1023.76
2023-02-20T02:25:39.053Z,1023.78
2023-02-20T02:26:31.449Z,1023.74
2023-02-20T02:27:31.410Z,1023.66
2023-02-20T02:28:31.410Z,1023.58
2023-02-20T02:29:31.376Z,1023.56
2023-02-20T02:30:31.401Z,1023.52
2023-02-20T02:31:31.439Z,1023.51
2023-02-20T02:32:31.328Z,1023.49
2023-02-20T02:33:31.350Z,1023.48
2023-02-20T02:34:31.315Z,1023.41
2023-02-20T02:35:31.292Z,1023.41
2023-02-20T02:36:31.294Z,1023.43
2023-02-20T02:37:38.813Z,1023.44
2023-02-20T02:38:31.266Z,1023.48
2023-02-20T02:39:31.262Z,1023.46
2023-02-20T02:40:31.274Z,1023.50
2023-02-20T02:41:31.240Z,1023.49
2023-02-20T02:42:31.217Z,1023.53
2023-02-20T02:43:31.195Z,1023.49
2023-02-20T02:44:31.178Z,1023.49
2023-02-20T02:45:31.247Z,1023.48
2023-02-20T02:46:31.192Z,1023.55
2023-02-20T02:47:31.230Z,1023.53
2023-02-20T02:48:31.181Z,1023.51
2023-02-20T02:49:31.285Z,1023.52
2023-02-20T02:50:31.104Z,1023.53
2023-02-20T02:51:31.091Z,1023.47
2023-02-20T02:52:31.076Z,1023.47
2023-02-20T02:53:31.205Z,1023.50
2023-02-20T02:54:31.054Z,1023.48
2023-02-20T02:55:31.085Z,1023.43
2023-02-20T02:56:31.014Z,1023.43
2023-02-20T02:57:31.014Z,1023.41
2023-02-20T02:58:31.008Z,1023.43
2023-02-20T02:59:30.992Z,1023.48
2023-02-20T03:00:30.985Z,1023.42
2023-02-20T03:01:30.997Z,1023.37
2023-02-20T03:02:30.989Z,1023.39
2023-02-20T03:03:30.932Z,1023.30
2023-02-20T03:04:30.920Z,1023.28
2023-02-20T03:05:30.902Z,1023.24
2023-02-20T03:06:31.024Z,1023.27
2023-02-20T03:07:30.888Z,1023.23
2023-02-20T03:08:30.885Z,1023.19
2023-02-20T03:09:30.863Z,1023.15
2023-02-20T03:10:30.836Z,1023.18
2023-02-20T03:11:30.822Z,1023.19
2023-02-20T03:12:30.842Z,1023.19
2023-02-20T03:13:30.806Z,1023.23
2023-02-20T03:14:30.785Z,1023.15
2023-02-20T03:15:30.783Z,1023.14
2023-02-20T03:16:30.788Z,1023.07
2023-02-20T03:17:30.748Z,1023.09
2023-02-20T03:18:30.782Z,1023.07
2023-02-20T03:19:30.718Z,1023.11
2023-02-20T03:20:30.714Z,1023.09
2023-02-20T03:21:30.719Z,1023.08
2023-02-20T03:22:30.707Z,1023.04
2023-02-20T03:23:30.662Z,1023.10
2023-02-20T03:24:30.675Z,1023.11
2023-02-20T03:25:30.666Z,1023.14
2023-02-20T03:26:30.659Z,1023.12
2023-02-20T03:27:30.614Z,1023.13
2023-02-20T03:28:30.613Z,1023.04
2023-02-20T03:29:30.613Z,1023.02
2023-02-20T03:30:30.645Z,1023.05
2023-02-20T03:31:30.611Z,1023.06
2023-02-20T03:32:30.566Z,1023.06
2023-02-20T03:33:30.579Z,1023.08
2023-02-20T03:34:30.521Z,1023.04
2023-02-20T03:35:30.528Z,1023.03
2023-02-20T03:36:30.533Z,1022.94
2023-02-20T03:37:30.502Z,1022.95
2023-02-20T03:38:30.474Z,1022.98
2023-02-20T03:39:30.480Z,1022.97
2023-02-20T03:40:30.478Z,1022.93
2023-02-20T03:41:30.450Z,1022.94
2023-02-20T03:42:30.442Z,1022.93
2023-02-20T03:43:30.442Z,1022.99
2023-02-20T03:44:30.453Z,1022.96
2023-02-20T03:45:30.413Z,1022.95
2023-02-20T03:46:30.391Z,1022.96
2023-02-20T03:47:30.385Z,1023.01
2023-02-20T03:48:30.366Z,1023.06
2023-02-20T03:49:30.368Z,1023.03
2023-02-20T03:50:30.398Z,1023.05
2023-02-20T03:51:30.348Z,1022.97
2023-02-20T03:52:30.298Z,1022.96
2023-02-20T03:53:30.309Z,1023.01
2023-02-20T03:54:30.322Z,1023.00
2023-02-20T03:55:30.352Z,1023.04
2023-02-20T03:56:30.321Z,1022.99
2023-02-20T03:57:30.225Z,1022.98
2023-02-20T03:58:30.273Z,1022.97
2023-02-20T03:59:30.233Z,1022.98
2023-02-20T04:00:30.254Z,1022.93
2023-02-20T04:01:30.195Z,1022.98
2023-02-20T04:02:30.217Z,1022.98
2023-02-20T04:03:30.146Z,1022.97
2023-02-20T04:04:30.176Z,1022.97
2023-02-20T04:05:30.179Z,1022.98
2023-02-20T04:06:30.143Z,1022.96
2023-02-20T04:07:30.127Z,1022.94
2023-02-20T04:08:30.097Z,1022.89
2023-02-20T04:09:30.092Z,1022.89
2023-02-20T04:10:30.096Z,1022.83
2023-02-20T04:11:30.076Z,1022.85
2023-02-20T04:12:30.083Z,1022.86
2023-02-20T04:13:30.052Z,1022.89
2023-02-20T04:14:30.061Z,1022.91
2023-02-20T04:15:30.067Z,1022.91
2023-02-20T04:16:30.119Z,1022.91
2023-02-20T04:17:29.989Z,1022.86
2023-02-20T04:18:29.969Z,1022.91
2023-02-20T04:19:29.974Z,1022.90
2023-02-20T04:20:29.987Z,1022.85
2023-02-20T04:21:29.923Z,1022.89
2023-02-20T04:22:29.947Z,1022.85
2023-02-20T04:23:29.907Z,1022.88
2023-02-20T04:24:29.915Z,1022.85
2023-02-20T04:25:29.904Z,1022.83
2023-02-20T04:26:29.927Z,1022.90
2023-02-20T04:27:29.866Z,1022.89
2023-02-20T04:28:29.884Z,1022.91
2023-02-20T04:29:29.834Z,1022.96
2023-02-20T04:30:29.915Z,1022.90
2023-02-20T04:31:29.887Z,1022.91
2023-02-20T04:32:29.838Z,1022.96
2023-02-20T04:33:29.791Z,1022.96
2023-02-20T04:34:29.765Z,1023.03
2023-02-20T04:35:29.745Z,1023.01
2023-02-20T04:36:29.750Z,1023.03
2023-02-20T04:37:29.716Z,1023.01
2023-02-20T04:38:29.782Z,1023.02
2023-02-20T04:39:29.739Z,1023.00
2023-02-20T04:40:29.727Z,1023.01
2023-02-20T04:41:29.660Z,1023.00
2023-02-20T04:42:29.653Z,1023.00
2023-02-20T04:43:29.651Z,1023.02
2023-02-20T04:44:29.664Z,1023.01
2023-02-20T04:45:29.624Z,1023.04
2023-02-20T04:46:29.612Z,1023.03
2023-02-20T04:47:29.600Z,1023.00
2023-02-20T04:48:29.589Z,1023.00
2023-02-20T04:49:29.572Z,1023.01
2023-02-20T04:50:29.560Z,1022.99
2023-02-20T04:51:29.543Z,1022.97
2023-02-20T04:52:29.551Z,1022.99
2023-02-20T04:53:29.520Z,1022.90
2023-02-20T04:54:29.534Z,1022.92
2023-02-20T04:55:29.513Z,1022.90
2023-02-20T04:56:29.521Z,1022.82
2023-02-20T04:57:29.455Z,1022.82
2023-02-20T04:58:29.465Z,1022.82
2023-02-20T04:59:29.428Z,1022.85
2023-02-20T05:00:29.455Z,1022.83
2023-02-20T05:01:29.474Z,1022.80
2023-02-20T05:02:29.455Z,1022.82
2023-02-20T05:03:29.399Z,1022.79
2023-02-20T05:04:29.484Z,1022.80
2023-02-20T05:05:29.357Z,1022.77
2023-02-20T05:06:29.369Z,1022.68
2023-02-20T05:07:29.369Z,1022.67
2023-02-20T05:08:29.337Z,1022.70
2023-02-20T05:09:29.367Z,1022.70
2023-02-20T05:10:29.326Z,1022.69
2023-02-20T05:11:29.317Z,1022.68
2023-02-20T05:12:29.347Z,1022.67
2023-02-20T05:13:29.289Z,1022.67
2023-02-20T05:14:29.299Z,1022.65
2023-02-20T05:15:29.284Z,1022.67
2023-02-20T05:16:29.258Z,1022.66
2023-02-20T05:17:29.247Z,1022.69
2023-02-20T05:18:29.199Z,1022.69
2023-02-20T05:19:29.203Z,1022.61
2023-02-20T05:20:29.191Z,1022.74
2023-02-20T05:21:29.164Z,1022.70
2023-02-20T05:22:29.176Z,1022.77
2023-02-20T05:23:29.141Z,1022.71
2023-02-20T05:24:29.134Z,1022.71
2023-02-20T05:25:29.138Z,1022.73
2023-02-20T05:26:29.099Z,1022.76
2023-02-20T05:27:29.105Z,1022.73
2023-02-20T05:28:29.092Z,1022.69
2023-02-20T05:29:29.111Z,1022.66
2023-02-20T05:30:29.099Z,1022.65
2023-02-20T05:31:29.210Z,1022.60
2023-02-20T05:32:29.040Z,1022.64
2023-02-20T05:33:29.062Z,1022.60
2023-02-20T05:34:28.998Z,1022.59
2023-02-20T05:35:29.055Z,1022.53
2023-02-20T05:36:28.981Z,1022.58
2023-02-20T05:37:29.006Z,1022.60
2023-02-20T05:38:29.003Z,1022.66
2023-02-20T05:39:29.042Z,1022.57
2023-02-20T05:40:28.925Z,1022.59
2023-02-20T05:41:28.956Z,1022.53
2023-02-20T05:42:28.900Z,1022.58
2023-02-20T05:43:28.941Z,1022.58
2023-02-20T05:44:28.882Z,1022.57
2023-02-20T05:45:28.874Z,1022.62
2023-02-20T05:46:28.894Z,1022.59
2023-02-20T05:47:28.843Z,1022.59
2023-02-20T05:48:28.840Z,1022.63
2023-02-20T05:49:28.822Z,1022.67
2023-02-20T05:50:28.806Z,1022.63
2023-02-20T05:51:28.791Z,1022.64
2023-02-20T05:52:28.809Z,1022.61
2023-02-20T05:53:28.777Z,1022.60
2023-02-20T05:54:28.753Z,1022.52
2023-02-20T05:55:28.737Z,1022.49
2023-02-20T05:56:28.741Z,1022.47
2023-02-20T05:57:28.724Z,1022.42
2023-02-20T05:58:28.697Z,1022.48
2023-02-20T05:59:28.684Z,1022.44
2023-02-20T06:00:28.699Z,1022.47
2023-02-20T06:01:28.684Z,1022.56
2023-02-20T06:02:28.651Z,1022.62
2023-02-20T06:03:28.681Z,1022.47
2023-02-20T06:04:28.656Z,1022.47
2023-02-20T06:05:28.597Z,1022.45
2023-02-20T06:06:28.594Z,1022.46
2023-02-20T06:07:28.595Z,1022.54
2023-02-20T06:08:28.614Z,1022.55
2023-02-20T06:09:28.568Z,1022.60
2023-02-20T06:10:28.642Z,1022.51
2023-02-20T06:11:28.546Z,1022.57
2023-02-20T06:12:28.595Z,1022.55
2023-02-20T06:13:28.662Z,1022.58
2023-02-20T06:14:28.519Z,1022.64
2023-02-20T06:15:28.486Z,1022.63
2023-02-20T06:16:28.564Z,1022.58
2023-02-20T06:17:28.544Z,1022.58
2023-02-20T06:18:28.527Z,1022.60
2023-02-20T06:19:28.458Z,1022.65
2023-02-20T06:20:28.548Z,1022.64
2023-02-20T06:21:28.426Z,1022.64
2023-02-20T06:22:28.501Z,1022.64
2023-02-20T06:23:28.407Z,1022.69
2023-02-20T06:24:28.374Z,1022.72
2023-02-20T06:25:28.391Z,1022.76
2023-02-20T06:26:28.372Z,1022.76
2023-02-20T06:27:28.364Z,1022.75
2023-02-20T06:28:28.343Z,1022.79
2023-02-20T06:29:28.416Z,1022.83
2023-02-20T06:30:28.340Z,1022.86
2023-02-20T06:31:28.475Z,1022.91
2023-02-20T06:32:28.340Z,1022.91
2023-02-20T06:33:28.298Z,1022.93
2023-02-20T06:34:28.283Z,1022.90
2023-02-20T06:35:28.241Z,1022.89
2023-02-20T06:36:28.255Z,1022.94
2023-02-20T06:37:28.495Z,1022.93
2023-02-20T06:38:28.213Z,1022.86
2023-02-20T06:39:28.219Z,1022.94
2023-02-20T06:40:28.245Z,1023.01
2023-02-20T06:41:28.174Z,1022.96
2023-02-20T06:42:28.180Z,1022.95
2023-02-20T06:43:28.200Z,1022.95
2023-02-20T06:44:28.190Z,1022.97
2023-02-20T06:45:28.127Z,1023.05
2023-02-20T06:46:28.188Z,1023.02
2023-02-20T06:47:28.126Z,1023.02
2023-02-20T06:48:28.146Z,1022.98
2023-02-20T06:49:28.120Z,1022.97
2023-02-20T06:50:28.094Z,1022.98
2023-02-20T06:51:28.105Z,1023.02
2023-02-20T06:52:28.141Z,1022.98
2023-02-20T06:53:28.059Z,1023.00
2023-02-20T06:54:28.087Z,1022.96
2023-02-20T06:55:28.005Z,1022.99
2023-02-20T06:56:28.034Z,1023.02
2023-02-20T06:57:27.989Z,1022.99
2023-02-20T06:58:27.982Z,1022.99
2023-02-20T06:59:27.949Z,1022.94
2023-02-20T07:00:27.972Z,1022.94
2023-02-20T07:01:27.959Z,1022.96
2023-02-20T07:02:27.995Z,1022.91
2023-02-20T07:03:27.922Z,1022.91
2023-02-20T07:04:28.155Z,1022.96
2023-02-20T07:05:27.885Z,1022.91
2023-02-20T07:06:27.909Z,1022.94
2023-02-20T07:07:27.879Z,1022.87
2023-02-20T07:08:27.840Z,1022.95
2023-02-20T07:09:27.843Z,1022.97
2023-02-20T07:10:27.819Z,1022.89
2023-02-20T07:11:27.817Z,1022.94
2023-02-20T07:12:27.815Z,1022.91
2023-02-20T07:13:28.479Z,1022.90
2023-02-20T07:14:27.781Z,1022.90
2023-02-20T07:15:27.763Z,1022.92
2023-02-20T07:16:27.743Z,1023.02
2023-02-20T07:17:27.745Z,1022.94
2023-02-20T07:18:27.905Z,1022.96
2023-02-20T07:19:27.702Z,1022.95
2023-02-20T07:20:27.718Z,1023.00
2023-02-20T07:21:27.853Z,1023.00
2023-02-20T07:22:27.737Z,1022.97
2023-02-20T07:23:27.685Z,1022.93
2023-02-20T07:24:27.683Z,1023.00
2023-02-20T07:25:27.625Z,1022.99
2023-02-20T07:26:27.627Z,1022.95
2023-02-20T07:27:27.592Z,1022.97
2023-02-20T07:28:27.617Z,1022.95
2023-02-20T07:29:27.580Z,1022.93
2023-02-20T07:30:27.590Z,1022.97
2023-02-20T07:31:27.839Z,1022.96
2023-02-20T07:32:27.581Z,1022.94
2023-02-20T07:33:27.540Z,1022.96
2023-02-20T07:34:27.593Z,1022.92
2023-02-20T07:35:27.502Z,1022.93
2023-02-20T07:36:27.527Z,1022.92
2023-02-20T07:37:27.482Z,1022.98
2023-02-20T07:38:27.459Z,1022.90
2023-02-20T07:39:27.455Z,1022.96
2023-02-20T07:40:27.474Z,1022.86
2023-02-20T07:41:27.415Z,1022.91
2023-02-20T07:42:27.436Z,1022.94
2023-02-20T07:43:27.444Z,1022.90
2023-02-20T07:44:27.426Z,1022.95
2023-02-20T07:45:27.482Z,1022.98
2023-02-20T07:46:27.422Z,1022.94
2023-02-20T07:47:27.351Z,1022.90
2023-02-20T07:48:27.399Z,1022.86
2023-02-20T07:49:27.358Z,1022.88
2023-02-20T07:50:27.375Z,1022.91
2023-02-20T07:51:27.336Z,1023.00
2023-02-20T07:52:27.377Z,1022.91
2023-02-20T07:53:27.306Z,1022.91
2023-02-20T07:54:27.283Z,1022.98
2023-02-20T07:55:27.310Z,1022.95
2023-02-20T07:56:27.238Z,1022.99
2023-02-20T07:57:27.297Z,1022.94
2023-02-20T07:58:27.255Z,1022.95
2023-02-20T07:59:27.271Z,1022.98
2023-02-20T08:00:27.224Z,1022.90
2023-02-20T08:01:27.205Z,1022.96
2023-02-20T08:02:27.284Z,1022.90
2023-02-20T08:03:27.171Z,1022.96
2023-02-20T08:04:27.136Z,1022.91
2023-02-20T08:05:28.388Z,1022.83
2023-02-20T08:06:27.142Z,1022.86
2023-02-20T08:07:27.102Z,1022.84
2023-02-20T08:08:27.122Z,1022.87
2023-02-20T08:09:27.122Z,1022.87
2023-02-20T08:10:27.073Z,1022.87
2023-02-20T08:11:27.086Z,1022.91
2023-02-20T08:12:27.102Z,1022.93
2023-02-20T08:14:27.146Z,1022.88
2023-02-20T08:15:27.161Z,1022.85
2023-02-20T08:16:27.170Z,1022.91
2023-02-20T08:17:37.198Z,1022.87
2023-02-20T08:18:28.062Z,1022.88
2023-02-20T08:19:27.081Z,1022.91
2023-02-20T08:20:27.147Z,1022.95
2023-02-20T08:21:27.114Z,1022.95
2023-02-20T08:22:36.565Z,1022.96
2023-02-20T08:23:28.021Z,1023.02
2023-02-20T08:24:26.971Z,1022.92
2023-02-20T08:25:26.951Z,1022.91
2023-02-20T08:26:26.969Z,1022.94
2023-02-20T08:27:26.942Z,1022.96
2023-02-20T08:28:26.947Z,1022.95
2023-02-20T08:29:27.020Z,1022.92
2023-02-20T08:30:26.983Z,1022.87
2023-02-20T08:31:32.647Z,1022.92
2023-02-20T08:32:28.086Z,1022.83
2023-02-20T08:33:26.841Z,1022.83
2023-02-20T08:34:26.852Z,1022.88
2023-02-20T08:35:26.852Z,1022.81
2023-02-20T08:36:26.851Z,1022.86
2023-02-20T08:37:26.825Z,1022.83
2023-02-20T08:38:26.819Z,1022.77
2023-02-20T08:39:26.798Z,1022.83
2023-02-20T08:40:26.845Z,1022.80
2023-02-20T08:41:26.752Z,1022.80
2023-02-20T08:42:27.129Z,1022.75
2023-02-20T08:43:28.171Z,1022.76
2023-02-20T08:44:26.738Z,1022.79
2023-02-20T08:45:26.777Z,1022.79
2023-02-20T08:46:26.701Z,1022.71
2023-02-20T08:47:26.765Z,1022.83
2023-02-20T08:48:26.693Z,1022.75
2023-02-20T08:49:27.301Z,1022.76
2023-02-20T08:50:26.678Z,1022.73
2023-02-20T08:51:26.627Z,1022.72
2023-02-20T08:52:26.740Z,1022.71
2023-02-20T08:53:26.602Z,1022.61
2023-02-20T08:54:26.649Z,1022.66
2023-02-20T08:55:26.592Z,1022.72
2023-02-20T08:56:26.575Z,1022.72
2023-02-20T08:57:26.583Z,1022.73
2023-02-20T08:58:26.549Z,1022.76
2023-02-20T08:59:26.567Z,1022.80
2023-02-20T09:00:26.555Z,1022.77
2023-02-20T09:01:26.602Z,1022.79
2023-02-20T09:02:26.572Z,1022.77
2023-02-20T09:03:26.489Z,1022.76
2023-02-20T09:04:26.495Z,1022.79
2023-02-20T09:05:26.476Z,1022.78
2023-02-20T09:06:26.507Z,1022.78
2023-02-20T09:07:26.517Z,1022.81
2023-02-20T09:08:26.424Z,1022.77
2023-02-20T09:09:26.400Z,1022.78
2023-02-20T09:10:26.464Z,1022.83
2023-02-20T09:11:26.425Z,1022.77
2023-02-20T09:12:26.409Z,1022.81
2023-02-20T09:13:26.446Z,1022.76
2023-02-20T09:14:26.353Z,1022.76
2023-02-20T09:15:26.377Z,1022.80
2023-02-20T09:16:26.383Z,1022.86
2023-02-20T09:17:26.338Z,1022.75
2023-02-20T09:18:26.328Z,1022.81
2023-02-20T09:19:26.354Z,1022.84
2023-02-20T09:20:26.272Z,1022.79
2023-02-20T09:21:26.367Z,1022.76
2023-02-20T09:22:26.249Z,1022.79
2023-02-20T09:23:26.256Z,1022.81
2023-02-20T09:24:26.223Z,1022.85
2023-02-20T09:25:26.246Z,1022.86
2023-02-20T09:26:26.252Z,1022.74
2023-02-20T09:27:26.274Z,1022.74
2023-02-20T09:28:26.180Z,1022.76
2023-02-20T09:29:26.186Z,1022.72
2023-02-20T09:30:26.409Z,1022.69
2023-02-20T09:31:26.238Z,1022.63
2023-02-20T09:32:26.316Z,1022.64
2023-02-20T09:33:26.149Z,1022.66
2023-02-20T09:34:26.147Z,1022.66
2023-02-20T09:35:26.085Z,1022.67
2023-02-20T09:36:26.086Z,1022.59
2023-02-20T09:37:26.076Z,1022.65
2023-02-20T09:38:26.045Z,1022.70
2023-02-20T09:39:26.223Z,1022.67
2023-02-20T09:40:26.052Z,1022.58
2023-02-20T09:41:26.030Z,1022.66
2023-02-20T09:42:25.999Z,1022.60
2023-02-20T09:43:25.982Z,1022.61
2023-02-20T09:44:25.993Z,1022.64
2023-02-20T09:45:25.984Z,1022.64
2023-02-20T09:46:26.083Z,1022.59
2023-02-20T09:47:25.983Z,1022.62
2023-02-20T09:48:25.928Z,1022.61
2023-02-20T09:49:25.918Z,1022.59
2023-02-20T09:50:25.893Z,1022.64
2023-02-20T09:51:25.882Z,1022.59
2023-02-20T09:52:25.941Z,1022.60
2023-02-20T09:53:25.861Z,1022.59
2023-02-20T09:54:25.884Z,1022.60
2023-02-20T09:55:25.938Z,1022.65
2023-02-20T09:56:25.813Z,1022.60
2023-02-20T09:57:25.816Z,1022.62
2023-02-20T09:58:25.795Z,1022.65
2023-02-20T09:59:25.795Z,1022.61
2023-02-20T10:00:25.791Z,1022.59
2023-02-20T10:01:25.757Z,1022.55
2023-02-20T10:02:25.860Z,1022.55
2023-02-20T10:03:25.814Z,1022.61
2023-02-20T10:04:25.712Z,1022.57
2023-02-20T10:05:25.700Z,1022.51
2023-02-20T10:06:25.835Z,1022.51
2023-02-20T10:07:25.696Z,1022.48
2023-02-20T10:08:25.703Z,1022.51
2023-02-20T10:09:25.663Z,1022.49
2023-02-20T10:10:25.645Z,1022.51
2023-02-20T10:11:25.656Z,1022.50
2023-02-20T10:12:25.714Z,1022.55
2023-02-20T10:13:25.645Z,1022.46
2023-02-20T10:14:25.697Z,1022.42
2023-02-20T10:15:26.113Z,1022.45
2023-02-20T10:16:25.718Z,1022.47
2023-02-20T10:17:25.910Z,1022.45
2023-02-20T10:18:25.538Z,1022.49
2023-02-20T10:19:25.515Z,1022.35
2023-02-20T10:20:25.509Z,1022.38
2023-02-20T10:21:25.694Z,1022.43
2023-02-20T10:22:25.523Z,1022.38
2023-02-20T10:23:26.826Z,1022.37
2023-02-20T10:24:25.458Z,1022.43
2023-02-20T10:25:25.529Z,1022.36
2023-02-20T10:26:25.438Z,1022.33
2023-02-20T10:27:25.570Z,1022.31
2023-02-20T10:28:25.423Z,1022.30
2023-02-20T10:29:25.529Z,1022.34
2023-02-20T10:30:25.479Z,1022.32
2023-02-20T10:31:25.504Z,1022.34
2023-02-20T10:32:25.369Z,1022.34
2023-02-20T10:33:25.360Z,1022.29
2023-02-20T10:34:25.333Z,1022.23
2023-02-20T10:35:25.318Z,1022.21
2023-02-20T10:36:25.293Z,1022.26
2023-02-20T10:37:25.920Z,1022.27
2023-02-20T10:38:25.257Z,1022.24
2023-02-20T10:39:25.293Z,1022.27
2023-02-20T10:40:25.251Z,1022.20
2023-02-20T10:41:25.227Z,1022.29
2023-02-20T10:42:25.210Z,1022.24
2023-02-20T10:43:25.214Z,1022.23
2023-02-20T10:44:25.229Z,1022.31
2023-02-20T10:45:25.164Z,1022.25
2023-02-20T10:46:25.395Z,1022.30
2023-02-20T10:47:25.149Z,1022.26
2023-02-20T10:48:25.125Z,1022.24
2023-02-20T10:49:25.135Z,1022.26
2023-02-20T10:50:25.119Z,1022.22
2023-02-20T10:51:25.098Z,1022.16
2023-02-20T10:52:33.095Z,1022.08
2023-02-20T10:53:26.059Z,1022.08
2023-02-20T10:54:25.061Z,1022.09
2023-02-20T10:55:25.075Z,1022.07
2023-02-20T10:56:25.039Z,1022.01
2023-02-20T10:57:25.020Z,1021.99
2023-02-20T10:58:24.996Z,1021.95
2023-02-20T10:59:24.967Z,1021.84
2023-02-20T11:00:24.971Z,1022.03
2023-02-20T11:01:25.006Z,1021.95
2023-02-20T11:02:25.161Z,1021.89
2023-02-20T11:03:24.918Z,1021.84
2023-02-20T11:04:24.940Z,1021.91
2023-02-20T11:05:24.895Z,1021.88
2023-02-20T11:06:24.884Z,1021.85
2023-02-20T11:07:24.863Z,1021.85
2023-02-20T11:08:24.911Z,1021.92
2023-02-20T11:09:24.839Z,1021.85
2023-02-20T11:10:24.884Z,1021.89
2023-02-20T11:11:24.894Z,1021.86
2023-02-20T11:12:24.784Z,1021.92
2023-02-20T11:13:24.762Z,1021.99
2023-02-20T11:14:37.894Z,1022.05
2023-02-20T11:15:25.756Z,1021.97
2023-02-20T11:16:24.726Z,1022.01
2023-02-20T11:17:24.867Z,1022.06
2023-02-20T11:18:24.743Z,1022.03
2023-02-20T11:19:24.784Z,1022.17
2023-02-20T11:20:24.681Z,1022.14
2023-02-20T11:21:24.668Z,1022.16
2023-02-20T11:22:24.679Z,1022.15
2023-02-20T11:23:24.631Z,1022.03
2023-02-20T11:24:24.626Z,1022.07
2023-02-20T11:25:24.631Z,1021.96
2023-02-20T11:26:24.623Z,1022.03
2023-02-20T11:27:24.581Z,1022.05
2023-02-20T11:28:24.558Z,1022.00
2023-02-20T11:29:24.549Z,1021.96
2023-02-20T11:30:24.640Z,1021.95
2023-02-20T11:31:24.666Z,1021.95
2023-02-20T11:32:24.520Z,1021.95
2023-02-20T11:33:24.494Z,1021.99
2023-02-20T11:34:24.492Z,1021.97
2023-02-20T11:35:24.484Z,1021.98
2023-02-20T11:36:24.536Z,1021.98
2023-02-20T11:37:24.462Z,1022.03
2023-02-20T11:38:24.448Z,1022.06
2023-02-20T11:39:24.426Z,1022.05
2023-02-20T11:40:24.409Z,1022.01
2023-02-20T11:41:25.950Z,1021.99
2023-02-20T11:42:24.465Z,1021.96
2023-02-20T11:43:24.376Z,1021.97
2023-02-20T11:44:24.401Z,1022.02
2023-02-20T11:45:24.337Z,1021.98
2023-02-20T11:46:24.358Z,1022.04
2023-02-20T11:47:24.298Z,1021.93
2023-02-20T11:48:24.365Z,1021.96
2023-02-20T11:49:24.309Z,1021.98
2023-02-20T11:50:24.317Z,1022.02
2023-02-20T11:51:24.284Z,1021.94
2023-02-20T11:52:24.269Z,1022.01
2023-02-20T11:53:24.263Z,1022.16
2023-02-20T11:54:24.284Z,1022.16
2023-02-20T11:55:25.788Z,1022.20
2023-02-20T11:56:24.219Z,1022.14
2023-02-20T11:57:24.161Z,1022.14
2023-02-20T11:58:24.144Z,1022.13
2023-02-20T11:59:24.168Z,1022.19
2023-02-20T12:00:24.132Z,1022.16
2023-02-20T12:01:24.112Z,1022.13
2023-02-20T12:02:24.121Z,1022.16
2023-02-20T12:03:24.067Z,1022.19
2023-02-20T12:04:24.154Z,1022.13
2023-02-20T12:05:24.289Z,1022.10
2023-02-20T12:06:24.050Z,1022.08